Time;durP1;ratioP1;P1;durP2;ratioP2;P2;SDS_P1;SDS_P2;PMS_P1;PMS_P2;Temp;Humidity;BMP_temperature;BMP_pressure;BME280_temperature;BME280_humidity;BME280_pressure;Samples;Min_cycle;Max_cycle;Signal;HPM_P1;HPM_P2
2023/05/06 00:00:55;;;;;;;23.33;15.90;;;11.90;99.90;;;;;;5100867;28;20209;-77
2023/05/06 00:03:22;;;;;;;21.40;15.03;;;11.80;99.90;;;;;;5075763;28;20228;-81
2023/05/06 00:05:50;;;;;;;21.70;15.70;;;11.80;99.90;;;;;;5083367;28;20201;-81
2023/05/06 00:08:17;;;;;;;24.03;17.10;;;11.80;99.90;;;;;;5096590;28;20209;-80
2023/05/06 00:10:44;;;;;;;21.73;15.17;;;11.90;99.90;;;;;;5078768;28;20570;-79
2023/05/06 00:13:11;;;;;;;20.80;15.03;;;11.90;99.90;;;;;;5074383;28;20237;-81
2023/05/06 00:15:38;;;;;;;21.80;15.47;;;11.80;99.90;;;;;;5076612;28;20233;-80
2023/05/06 00:18:05;;;;;;;20.60;15.23;;;11.80;99.90;;;;;;5084632;28;20261;-80
2023/05/06 00:20:32;;;;;;;22.47;14.23;;;11.90;99.90;;;;;;5096215;28;20270;-79
2023/05/06 00:23:00;;;;;;;22.13;14.37;;;11.80;99.90;;;;;;5081404;28;20226;-80
2023/05/06 00:25:27;;;;;;;19.40;13.40;;;11.90;99.90;;;;;;5076671;28;20233;-81
2023/05/06 00:27:54;;;;;;;19.70;13.53;;;11.80;99.90;;;;;;5091185;28;20198;-78
2023/05/06 00:30:21;;;;;;;20.00;13.97;;;11.80;99.90;;;;;;5078132;28;20202;-79
2023/05/06 00:32:48;;;;;;;19.70;12.03;;;11.80;99.90;;;;;;5076727;28;20285;-81
2023/05/06 00:35:15;;;;;;;17.47;11.70;;;11.80;99.90;;;;;;5088802;28;20203;-81
2023/05/06 00:37:45;;;;;;;17.20;11.53;;;11.80;99.90;;;;;;5097828;28;20285;-81
2023/05/06 00:40:14;;;;;;;16.93;11.13;;;11.80;99.90;;;;;;5097088;28;20647;-81
2023/05/06 00:42:40;;;;;;;16.00;10.97;;;11.80;99.90;;;;;;5089954;28;20481;-80
2023/05/06 00:45:08;;;;;;;16.07;10.70;;;11.70;99.90;;;;;;5098309;28;20543;-78
2023/05/06 00:47:35;;;;;;;16.47;11.07;;;11.80;99.90;;;;;;5116239;28;20200;-78
2023/05/06 00:50:02;;;;;;;14.73;10.33;;;11.90;99.90;;;;;;5115834;28;20200;-81
2023/05/06 00:52:29;;;;;;;15.77;11.23;;;11.80;99.90;;;;;;5116742;28;20738;-79
2023/05/06 00:54:56;;;;;;;15.13;10.83;;;11.90;99.90;;;;;;5117242;28;20193;-81
2023/05/06 00:57:25;;;;;;;16.77;12.50;;;11.80;99.90;;;;;;5116640;28;20216;-79
2023/05/06 00:59:52;;;;;;;16.20;11.37;;;11.80;99.90;;;;;;5115339;28;20213;-79
2023/05/06 01:02:20;;;;;;;20.77;12.07;;;11.80;99.90;;;;;;5086709;28;20225;-81
2023/05/06 01:04:47;;;;;;;16.97;11.93;;;11.80;99.90;;;;;;5090739;28;20743;-81
2023/05/06 01:07:27;;;;;;;17.40;12.07;;;11.70;99.90;;;;;;5096149;28;20672;-81
2023/05/06 01:10:00;;;;;;;17.10;11.87;;;11.80;99.90;;;;;;5079725;28;20235;-79
2023/05/06 01:12:33;;;;;;;17.87;12.23;;;11.70;99.90;;;;;;5089789;28;20225;-81
2023/05/06 01:15:07;;;;;;;18.40;12.30;;;11.80;99.90;;;;;;5094638;28;20198;-79
2023/05/06 01:17:36;;;;;;;18.80;12.93;;;11.80;99.90;;;;;;5094492;28;20651;-80
2023/05/06 01:20:09;;;;;;;18.93;12.33;;;11.80;99.90;;;;;;5074142;28;20297;-79
2023/05/06 01:22:37;;;;;;;18.30;12.13;;;11.90;99.90;;;;;;5074588;28;20248;-79
2023/05/06 01:25:06;;;;;;;17.50;12.30;;;11.80;99.90;;;;;;5093727;28;20219;-79
2023/05/06 01:27:33;;;;;;;18.23;12.10;;;11.80;99.90;;;;;;5094311;28;20200;-79
2023/05/06 01:30:00;;;;;;;18.97;12.17;;;11.90;99.90;;;;;;5094429;28;20197;-78
2023/05/06 01:32:36;;;;;;;17.47;11.80;;;11.80;99.90;;;;;;5088008;28;20598;-79
2023/05/06 01:35:10;;;;;;;21.67;13.07;;;11.80;99.90;;;;;;5074768;28;20244;-80
2023/05/06 01:37:46;;;;;;;19.83;13.10;;;11.70;99.90;;;;;;5075792;28;20530;-79
2023/05/06 01:40:16;;;;;;;19.53;11.73;;;11.70;99.90;;;;;;5094612;28;20670;-79
2023/05/06 01:42:46;;;;;;;19.60;12.97;;;11.70;99.90;;;;;;5091039;28;20226;-79
2023/05/06 01:45:15;;;;;;;19.47;13.37;;;11.70;99.90;;;;;;5094944;28;20243;-80
2023/05/06 01:47:44;;;;;;;19.07;12.80;;;11.70;99.90;;;;;;5093888;28;20574;-79
2023/05/06 01:50:11;;;;;;;19.47;11.90;;;11.70;99.90;;;;;;5079685;28;20228;-79
2023/05/06 01:52:38;;;;;;;20.57;13.70;;;11.70;99.90;;;;;;5094777;28;20221;-78
2023/05/06 01:55:06;;;;;;;19.77;13.30;;;11.70;99.90;;;;;;5074460;28;20190;-79
2023/05/06 01:57:34;;;;;;;20.17;11.60;;;11.70;99.90;;;;;;5075012;28;20202;-80
2023/05/06 02:00:03;;;;;;;18.70;12.13;;;11.60;99.90;;;;;;5093776;28;20207;-80
2023/05/06 02:02:30;;;;;;;17.93;11.90;;;11.60;99.90;;;;;;5091335;28;20237;-79
2023/05/06 02:04:56;;;;;;;18.63;12.40;;;11.60;99.90;;;;;;5101065;28;20220;-79
2023/05/06 02:07:23;;;;;;;17.77;12.03;;;11.60;99.90;;;;;;5090502;28;20202;-78
2023/05/06 02:09:50;;;;;;;18.67;12.20;;;11.50;99.90;;;;;;5086998;28;20679;-78
2023/05/06 02:12:17;;;;;;;19.33;12.60;;;11.50;99.90;;;;;;5078984;28;20589;-79
2023/05/06 02:14:45;;;;;;;18.30;11.97;;;11.40;99.90;;;;;;5084326;28;20212;-78
2023/05/06 02:17:11;;;;;;;19.70;13.10;;;11.30;99.90;;;;;;5073528;28;20203;-79
2023/05/06 02:19:38;;;;;;;18.20;12.10;;;11.30;99.90;;;;;;5071263;28;20206;-78
2023/05/06 02:22:05;;;;;;;17.00;11.37;;;11.30;99.90;;;;;;5073537;28;20218;-78
2023/05/06 02:24:32;;;;;;;18.57;11.47;;;11.20;99.90;;;;;;5088346;28;20217;-79
2023/05/06 02:26:59;;;;;;;16.50;11.10;;;11.20;99.90;;;;;;5091178;28;20201;-78
2023/05/06 02:29:25;;;;;;;24.17;12.57;;;11.20;99.90;;;;;;5085316;28;20202;-77
2023/05/06 02:31:53;;;;;;;17.77;11.93;;;11.20;99.90;;;;;;5083348;28;20297;-78
2023/05/06 02:34:20;;;;;;;19.20;12.47;;;11.10;99.90;;;;;;5092659;28;20281;-78
2023/05/06 02:36:47;;;;;;;17.77;11.47;;;11.10;99.90;;;;;;5080568;28;20206;-79
2023/05/06 02:39:14;;;;;;;16.70;10.60;;;11.00;99.90;;;;;;5078671;28;20681;-78
2023/05/06 02:41:41;;;;;;;18.63;11.47;;;11.00;99.90;;;;;;5073199;28;20221;-79
2023/05/06 02:44:07;;;;;;;16.70;11.10;;;10.90;99.90;;;;;;5076541;28;20221;-79
2023/05/06 02:46:35;;;;;;;16.17;10.37;;;10.90;99.90;;;;;;5092723;28;20205;-78
2023/05/06 02:49:03;;;;;;;16.93;10.33;;;11.00;99.90;;;;;;5093044;28;20201;-79
2023/05/06 02:51:30;;;;;;;15.90;9.60;;;10.90;99.90;;;;;;5093588;28;20218;-79
2023/05/06 02:53:58;;;;;;;15.33;9.60;;;11.00;99.90;;;;;;5089035;28;20190;-79
2023/05/06 02:56:25;;;;;;;14.83;9.90;;;10.80;99.90;;;;;;5088658;28;20194;-79
2023/05/06 02:58:53;;;;;;;13.00;8.40;;;10.70;99.90;;;;;;5074105;28;20204;-79
2023/05/06 03:01:20;;;;;;;14.30;9.03;;;10.70;99.90;;;;;;5074137;28;20222;-78
2023/05/06 03:03:46;;;;;;;15.23;9.90;;;10.70;99.90;;;;;;5080921;28;20225;-79
2023/05/06 03:06:15;;;;;;;16.30;9.60;;;10.60;99.90;;;;;;5093087;28;20205;-78
2023/05/06 03:08:41;;;;;;;14.13;8.13;;;10.50;99.90;;;;;;5079095;28;20194;-78
2023/05/06 03:11:09;;;;;;;11.43;7.50;;;10.40;99.90;;;;;;5091615;28;20247;-79
2023/05/06 03:13:36;;;;;;;11.63;7.87;;;10.50;99.90;;;;;;5074461;28;20205;-79
2023/05/06 03:16:03;;;;;;;13.10;8.03;;;10.40;99.90;;;;;;5094377;28;20731;-79
2023/05/06 03:18:30;;;;;;;11.77;7.80;;;10.30;99.90;;;;;;5092941;28;20662;-78
2023/05/06 03:20:57;;;;;;;11.60;7.57;;;10.20;99.90;;;;;;5109824;28;20193;-78
2023/05/06 03:23:25;;;;;;;12.37;7.83;;;10.20;99.90;;;;;;5082340;28;20202;-78
2023/05/06 03:25:51;;;;;;;12.23;7.17;;;10.00;99.90;;;;;;5074026;28;20218;-79
2023/05/06 03:28:18;;;;;;;10.43;7.13;;;10.00;99.90;;;;;;5074341;28;20210;-79
2023/05/06 03:30:45;;;;;;;10.80;6.70;;;10.00;99.90;;;;;;5088822;28;20856;-78
2023/05/06 03:33:12;;;;;;;12.03;6.83;;;10.00;99.90;;;;;;5083897;28;20305;-78
2023/05/06 03:35:39;;;;;;;13.13;7.60;;;10.00;99.90;;;;;;5077208;28;20198;-79
2023/05/06 03:38:05;;;;;;;9.53;7.07;;;9.90;99.90;;;;;;5083105;28;20823;-79
2023/05/06 03:40:34;;;;;;;10.80;6.87;;;9.90;99.90;;;;;;5088816;28;20202;-79
2023/05/06 03:43:00;;;;;;;9.43;6.53;;;9.90;99.90;;;;;;5080660;28;20230;-79
2023/05/06 03:45:27;;;;;;;10.70;6.80;;;9.80;99.90;;;;;;5080770;28;20747;-78
2023/05/06 03:47:54;;;;;;;9.87;6.30;;;9.80;99.90;;;;;;5080234;28;20194;-78
2023/05/06 03:50:21;;;;;;;10.27;6.67;;;9.80;99.90;;;;;;5078897;28;20574;-78
2023/05/06 03:52:48;;;;;;;11.47;6.43;;;9.80;99.90;;;;;;5094920;28;20221;-78
2023/05/06 03:55:14;;;;;;;10.87;6.57;;;9.70;99.90;;;;;;5092092;28;20198;-79
2023/05/06 03:57:43;;;;;;;9.77;6.00;;;9.70;99.90;;;;;;5088602;28;20297;-78
2023/05/06 04:00:11;;;;;;;11.07;6.70;;;9.60;99.90;;;;;;5092356;28;20209;-78
2023/05/06 04:02:38;;;;;;;9.30;5.87;;;9.60;99.90;;;;;;5077514;28;20226;-78
2023/05/06 04:05:06;;;;;;;11.47;6.07;;;9.50;99.90;;;;;;5095612;28;20219;-77
2023/05/06 04:07:33;;;;;;;10.30;6.70;;;9.40;99.90;;;;;;5089031;28;20196;-78
2023/05/06 04:09:59;;;;;;;11.90;6.80;;;9.50;99.90;;;;;;5097482;28;20198;-79
2023/05/06 04:12:26;;;;;;;9.33;6.50;;;9.40;99.90;;;;;;5103051;28;20218;-78
2023/05/06 04:14:55;;;;;;;9.53;6.43;;;9.60;99.90;;;;;;5086034;28;20260;-78
2023/05/06 04:17:21;;;;;;;10.40;6.30;;;9.60;99.90;;;;;;5089332;28;20252;-78
2023/05/06 04:19:48;;;;;;;9.70;6.33;;;9.60;99.90;;;;;;5081699;28;20202;-79
2023/05/06 04:22:15;;;;;;;7.13;5.17;;;9.80;99.90;;;;;;5092206;28;20710;-80
2023/05/06 04:24:44;;;;;;;8.77;6.10;;;9.90;99.90;;;;;;5091620;28;20243;-79
2023/05/06 04:27:11;;;;;;;8.90;5.80;;;9.70;99.90;;;;;;5088072;28;20202;-79
2023/05/06 04:29:38;;;;;;;8.10;5.80;;;9.70;99.90;;;;;;5081484;28;20210;-79
2023/05/06 04:32:09;;;;;;;8.60;6.17;;;9.80;99.90;;;;;;5082676;28;20236;-77
2023/05/06 04:34:37;;;;;;;10.67;6.77;;;9.80;99.90;;;;;;5085699;28;20197;-78
2023/05/06 04:37:04;;;;;;;10.90;6.50;;;9.60;99.90;;;;;;5085958;28;20237;-79
2023/05/06 04:39:31;;;;;;;9.30;6.23;;;9.70;99.90;;;;;;5080234;28;20229;-79
2023/05/06 04:41:58;;;;;;;9.50;6.30;;;9.80;99.90;;;;;;5086231;28;20271;-79
2023/05/06 04:44:26;;;;;;;13.17;7.90;;;9.80;99.90;;;;;;5085825;28;20760;-79
2023/05/06 04:46:52;;;;;;;9.70;6.23;;;9.90;99.90;;;;;;5076329;28;20242;-79
2023/05/06 04:49:20;;;;;;;11.67;7.20;;;9.80;99.90;;;;;;5086791;28;20198;-79
2023/05/06 04:51:47;;;;;;;12.40;7.47;;;9.90;99.90;;;;;;5083710;28;20229;-79
2023/05/06 04:54:14;;;;;;;14.23;8.00;;;9.90;99.90;;;;;;5086766;28;20201;-80
2023/05/06 04:56:41;;;;;;;12.17;7.40;;;9.90;99.90;;;;;;5087997;28;20686;-79
2023/05/06 04:59:08;;;;;;;10.90;7.17;;;10.00;99.90;;;;;;5079428;28;20228;-79
2023/05/06 05:01:34;;;;;;;11.30;7.13;;;10.00;99.90;;;;;;5087469;28;20228;-79
2023/05/06 05:04:01;;;;;;;18.67;10.83;;;9.90;99.90;;;;;;5085411;28;20201;-79
2023/05/06 05:06:30;;;;;;;13.37;8.10;;;9.90;99.90;;;;;;5085703;28;20312;-79
2023/05/06 05:08:57;;;;;;;12.13;7.30;;;10.00;99.90;;;;;;5086776;28;20201;-79
2023/05/06 05:11:24;;;;;;;13.77;8.13;;;10.10;99.90;;;;;;5088161;28;20695;-79
2023/05/06 05:13:51;;;;;;;12.20;7.97;;;10.10;99.90;;;;;;5085648;28;20202;-79
2023/05/06 05:16:18;;;;;;;12.63;7.93;;;10.20;99.90;;;;;;5077461;28;20195;-80
2023/05/06 05:18:44;;;;;;;13.60;7.67;;;10.30;99.90;;;;;;5078313;28;20212;-79
2023/05/06 05:21:11;;;;;;;12.60;8.13;;;10.30;99.90;;;;;;5076233;28;20201;-78
2023/05/06 05:23:39;;;;;;;13.07;7.90;;;10.20;99.90;;;;;;5078559;28;20233;-79
2023/05/06 05:26:06;;;;;;;14.80;9.00;;;10.20;99.90;;;;;;5082497;28;20223;-78
2023/05/06 05:28:33;;;;;;;12.57;7.80;;;10.10;99.90;;;;;;5087642;28;20608;-80
2023/05/06 05:31:02;;;;;;;13.27;8.07;;;10.30;99.90;;;;;;5077471;28;20202;-79
2023/05/06 05:33:29;;;;;;;15.83;8.60;;;10.60;99.90;;;;;;5080568;28;20206;-77
2023/05/06 05:35:57;;;;;;;13.70;8.27;;;10.70;99.90;;;;;;5085199;28;20679;-78
2023/05/06 05:38:24;;;;;;;12.97;8.30;;;11.10;99.90;;;;;;5091795;28;20202;-79
2023/05/06 05:40:52;;;;;;;12.37;7.80;;;11.20;99.90;;;;;;5086960;28;20205;-81
2023/05/06 05:43:20;;;;;;;11.37;7.63;;;11.40;99.90;;;;;;5090942;28;20615;-77
2023/05/06 05:45:47;;;;;;;13.70;9.27;;;11.50;99.90;;;;;;5077722;28;20790;-78
2023/05/06 05:48:13;;;;;;;12.50;8.07;;;11.80;99.90;;;;;;5084425;28;20194;-79
2023/05/06 05:50:40;;;;;;;13.20;7.90;;;11.70;99.90;;;;;;5090308;28;20209;-78
2023/05/06 05:53:07;;;;;;;14.83;8.97;;;11.90;99.90;;;;;;5087934;28;20752;-80
2023/05/06 05:55:34;;;;;;;12.47;7.73;;;12.00;99.90;;;;;;5086699;28;20695;-80
2023/05/06 05:58:02;;;;;;;12.80;8.00;;;12.10;99.90;;;;;;5091799;28;20235;-79
2023/05/06 06:00:31;;;;;;;14.50;9.10;;;12.10;99.90;;;;;;5088388;28;20292;-80
2023/05/06 06:02:57;;;;;;;13.63;8.30;;;12.30;99.90;;;;;;5079823;28;20235;-79
2023/05/06 06:05:24;;;;;;;14.43;8.50;;;12.30;99.90;;;;;;5081735;28;20222;-78
2023/05/06 06:07:51;;;;;;;12.57;8.63;;;12.50;99.90;;;;;;5092147;28;20204;-77
2023/05/06 06:10:18;;;;;;;13.43;9.07;;;12.70;99.90;;;;;;5084049;28;20209;-77
2023/05/06 06:12:45;;;;;;;14.47;9.27;;;12.50;99.90;;;;;;5092117;28;20272;-78
2023/05/06 06:15:13;;;;;;;15.57;9.33;;;12.70;99.90;;;;;;5092426;28;20610;-77
2023/05/06 06:17:40;;;;;;;14.87;10.17;;;12.90;99.90;;;;;;5083536;28;20208;-79
2023/05/06 06:20:08;;;;;;;15.77;10.30;;;12.90;99.90;;;;;;5086516;28;20230;-78
2023/05/06 06:22:35;;;;;;;14.33;9.67;;;12.60;99.90;;;;;;5087922;28;20222;-80
2023/05/06 06:25:02;;;;;;;16.57;9.87;;;12.50;99.90;;;;;;5093940;28;20260;-80
2023/05/06 06:27:29;;;;;;;15.67;10.33;;;12.50;99.90;;;;;;5095146;28;20198;-80
2023/05/06 06:29:56;;;;;;;16.37;10.83;;;12.50;99.90;;;;;;5092207;28;20883;-78
2023/05/06 06:32:24;;;;;;;17.07;10.53;;;12.50;99.90;;;;;;5104310;28;20220;-80
2023/05/06 06:34:51;;;;;;;15.20;9.73;;;12.60;99.90;;;;;;5112831;28;20209;-79
2023/05/06 06:37:18;;;;;;;16.20;10.47;;;12.60;99.90;;;;;;5096268;28;20209;-79
2023/05/06 06:39:44;;;;;;;14.47;9.90;;;12.50;99.90;;;;;;5095904;28;20582;-78
2023/05/06 06:42:11;;;;;;;15.83;11.10;;;12.50;99.90;;;;;;5087653;28;20221;-79
2023/05/06 06:44:38;;;;;;;16.30;10.27;;;12.50;99.90;;;;;;5075651;28;20270;-79
2023/05/06 06:47:05;;;;;;;18.40;10.20;;;12.70;99.90;;;;;;5075214;28;20210;-78
2023/05/06 06:49:33;;;;;;;19.23;11.10;;;12.60;99.90;;;;;;5074906;28;20198;-79
2023/05/06 06:52:00;;;;;;;17.53;11.10;;;12.80;99.90;;;;;;5077977;28;20229;-79
2023/05/06 06:54:27;;;;;;;18.93;11.43;;;12.70;99.90;;;;;;5082117;28;20206;-79
2023/05/06 06:56:56;;;;;;;17.10;10.70;;;12.70;99.90;;;;;;5094859;28;20288;-78
2023/05/06 06:59:23;;;;;;;18.80;11.47;;;12.60;99.90;;;;;;5094517;28;20224;-78
2023/05/06 07:01:49;;;;;;;17.07;10.77;;;12.60;99.90;;;;;;5086630;28;20279;-77
2023/05/06 07:04:16;;;;;;;18.13;11.13;;;12.60;99.90;;;;;;5080394;28;20202;-77
2023/05/06 07:06:44;;;;;;;17.73;10.63;;;12.60;99.90;;;;;;5092881;28;20586;-79
2023/05/06 07:09:12;;;;;;;16.63;10.50;;;12.70;99.90;;;;;;5099266;28;20719;-79
2023/05/06 07:11:39;;;;;;;17.33;10.97;;;12.70;99.90;;;;;;5088521;28;20222;-78
2023/05/06 07:14:05;;;;;;;17.53;11.07;;;12.90;99.90;;;;;;5118890;28;20222;-78
2023/05/06 07:16:32;;;;;;;17.97;11.03;;;12.90;99.90;;;;;;5093748;28;20202;-78
2023/05/06 07:19:00;;;;;;;16.23;10.40;;;13.00;99.90;;;;;;5078569;28;20208;-78
2023/05/06 07:21:27;;;;;;;16.87;10.57;;;13.20;99.90;;;;;;5085225;28;20222;-79
2023/05/06 07:23:55;;;;;;;15.63;9.73;;;13.40;99.90;;;;;;5085818;28;20200;-78
2023/05/06 07:26:22;;;;;;;17.23;10.23;;;13.60;99.90;;;;;;5083122;28;20331;-77
2023/05/06 07:28:48;;;;;;;15.00;9.17;;;13.70;99.90;;;;;;5079954;28;20199;-79
2023/05/06 07:31:19;;;;;;;16.23;10.50;;;13.70;99.90;;;;;;5094399;28;20244;-79
2023/05/06 07:33:46;;;;;;;17.53;10.87;;;13.60;99.90;;;;;;5088363;28;20198;-78
2023/05/06 07:36:13;;;;;;;14.90;10.07;;;13.70;99.90;;;;;;5083879;28;20202;-79
2023/05/06 07:38:40;;;;;;;16.80;9.97;;;13.90;99.90;;;;;;5093169;28;20206;-79
2023/05/06 07:41:08;;;;;;;17.93;10.80;;;13.90;99.90;;;;;;5095415;28;20229;-79
2023/05/06 07:43:38;;;;;;;15.13;10.53;;;13.90;99.90;;;;;;5087229;28;20565;-79
2023/05/06 07:46:05;;;;;;;16.57;10.67;;;14.10;99.90;;;;;;5088510;28;20214;-78
2023/05/06 07:48:32;;;;;;;13.67;9.20;;;14.20;99.90;;;;;;5078713;28;20198;-77
2023/05/06 07:50:59;;;;;;;15.20;9.90;;;14.00;99.90;;;;;;5088130;28;20261;-77
2023/05/06 07:53:27;;;;;;;14.70;9.80;;;14.10;99.90;;;;;;5091742;28;20198;-79
2023/05/06 07:55:57;;;;;;;15.47;10.37;;;14.00;99.90;;;;;;5089226;28;20242;-79
2023/05/06 07:58:25;;;;;;;16.80;10.13;;;14.20;99.90;;;;;;5102852;28;20210;-78
2023/05/06 08:00:52;;;;;;;16.60;10.97;;;14.40;99.90;;;;;;5078107;28;20210;-78
2023/05/06 08:03:19;;;;;;;15.77;10.70;;;14.30;99.90;;;;;;5096866;28;20226;-78
2023/05/06 08:05:45;;;;;;;15.75;10.65;;;14.60;99.90;;;;;;5092130;28;20315;-79
2023/05/06 08:08:12;;;;;;;14.55;10.30;;;14.90;99.90;;;;;;5083468;28;20194;-78
2023/05/06 08:10:39;;;;;;;13.70;9.38;;;14.90;99.90;;;;;;5093098;28;20660;-79
2023/05/06 08:13:06;;;;;;;14.93;10.30;;;14.70;99.90;;;;;;5084843;28;20483;-80
2023/05/06 08:15:34;;;;;;;15.47;11.03;;;14.80;99.90;;;;;;5082739;28;20206;-78
2023/05/06 08:18:01;;;;;;;14.40;10.13;;;14.80;99.90;;;;;;5081185;28;20672;-79
2023/05/06 08:20:28;;;;;;;13.88;10.40;;;14.80;99.90;;;;;;5081678;28;20213;-80
2023/05/06 08:22:55;;;;;;;15.40;10.75;;;14.90;99.90;;;;;;5081490;28;20321;-80
2023/05/06 08:25:21;;;;;;;12.82;9.65;;;14.80;99.90;;;;;;5082009;28;20213;-80
2023/05/06 08:27:48;;;;;;;12.13;9.50;;;14.90;99.90;;;;;;5088594;28;20202;-80
2023/05/06 08:30:16;;;;;;;14.80;10.00;;;15.10;99.90;;;;;;5101582;28;20583;-79
2023/05/06 08:32:44;;;;;;;13.05;9.30;;;15.20;99.90;;;;;;5103788;28;20218;-79
2023/05/06 08:35:11;;;;;;;13.40;9.57;;;15.30;99.90;;;;;;5101774;28;20225;-79
2023/05/06 08:37:38;;;;;;;14.07;10.13;;;15.20;99.90;;;;;;5100883;28;20225;-79
2023/05/06 08:40:09;;;;;;;14.70;9.85;;;15.20;99.90;;;;;;5103108;28;20197;-80
2023/05/06 08:42:37;;;;;;;13.68;9.48;;;15.40;99.90;;;;;;5102592;28;20222;-79
2023/05/06 08:45:05;;;;;;;13.55;8.80;;;15.60;99.90;;;;;;5104189;28;20202;-80
2023/05/06 08:47:32;;;;;;;13.68;9.73;;;15.80;99.90;;;;;;5101879;28;20221;-79
2023/05/06 08:50:01;;;;;;;12.60;9.38;;;15.70;99.90;;;;;;5099464;28;20227;-79
2023/05/06 08:52:29;;;;;;;12.68;9.10;;;15.60;99.90;;;;;;5099836;28;20670;-79
2023/05/06 08:55:00;;;;;;;11.23;8.35;;;16.00;99.90;;;;;;5101500;28;20225;-79
2023/05/06 08:57:30;;;;;;;12.75;8.88;;;16.30;99.90;;;;;;5100836;28;20205;-79
2023/05/06 08:59:57;;;;;;;14.65;9.88;;;16.00;99.90;;;;;;5099229;28;20260;-79
2023/05/06 09:02:24;;;;;;;13.75;9.65;;;15.80;99.90;;;;;;5099261;28;20221;-79
2023/05/06 09:04:53;;;;;;;12.80;9.18;;;16.60;99.90;;;;;;5102834;28;20288;-79
2023/05/06 09:07:22;;;;;;;12.23;8.82;;;16.90;99.90;;;;;;5101347;28;20222;-81
2023/05/06 09:09:50;;;;;;;11.45;8.65;;;16.80;99.90;;;;;;5100135;28;20206;-81
2023/05/06 09:12:17;;;;;;;13.05;9.48;;;16.30;99.90;;;;;;5101377;28;20227;-81
2023/05/06 09:14:45;;;;;;;12.20;8.60;;;16.10;99.90;;;;;;5100305;28;20201;-81
2023/05/06 09:17:25;;;;;;;12.45;9.07;;;16.40;99.90;;;;;;5102169;28;20240;-80
2023/05/06 09:19:52;;;;;;;11.80;8.07;;;16.50;99.90;;;;;;5102767;28;20258;-81
2023/05/06 09:22:22;;;;;;;10.90;8.02;;;16.70;99.90;;;;;;5104637;28;20232;-80
2023/05/06 09:24:55;;;;;;;10.43;7.38;;;16.50;99.90;;;;;;5103862;28;20292;-80
2023/05/06 09:27:22;;;;;;;10.68;7.80;;;16.60;99.90;;;;;;5100713;28;20315;-78
2023/05/06 09:30:00;;;;;;;10.55;8.05;;;16.50;99.90;;;;;;5099742;28;20224;-79
2023/05/06 09:32:27;;;;;;;10.40;8.35;;;16.80;99.90;;;;;;5100342;28;20226;-81
2023/05/06 09:34:54;;;;;;;10.63;7.70;;;17.40;99.90;;;;;;5100448;28;20206;-80
2023/05/06 09:37:22;;;;;;;9.88;8.25;;;17.50;99.90;;;;;;5099439;28;20776;-79
2023/05/06 09:39:53;;;;;;;10.65;7.78;;;17.40;99.90;;;;;;5099703;28;20288;-79
2023/05/06 09:42:22;;;;;;;9.15;7.50;;;17.50;99.90;;;;;;5100991;28;20217;-79
2023/05/06 09:44:50;;;;;;;14.85;8.40;;;17.50;99.90;;;;;;5101329;28;20284;-79
2023/05/06 09:47:17;;;;;;;10.00;7.63;;;17.50;99.90;;;;;;5099452;28;20229;-79
2023/05/06 09:49:44;;;;;;;9.70;7.28;;;17.50;99.90;;;;;;5100948;28;20251;-79
2023/05/06 09:52:12;;;;;;;8.25;6.68;;;17.40;99.90;;;;;;5101576;28;20312;-79
2023/05/06 09:54:41;;;;;;;9.90;7.18;;;17.50;99.90;;;;;;5101182;28;20679;-78
2023/05/06 09:57:12;;;;;;;9.68;7.70;;;17.40;99.90;;;;;;5100379;28;20205;-79
2023/05/06 09:59:40;;;;;;;9.77;7.05;;;17.60;99.90;;;;;;5098106;28;20209;-79
2023/05/06 10:02:08;;;;;;;9.15;7.10;;;17.70;99.90;;;;;;5099807;28;20229;-79
2023/05/06 10:04:37;;;;;;;9.82;6.63;;;17.20;99.90;;;;;;5100488;28;20228;-78
2023/05/06 10:07:04;;;;;;;8.73;6.63;;;17.40;99.90;;;;;;5097663;28;20248;-78
2023/05/06 10:09:32;;;;;;;9.95;6.60;;;17.10;99.90;;;;;;5094747;28;20258;-79
2023/05/06 10:12:02;;;;;;;9.10;7.07;;;17.10;99.90;;;;;;5098040;28;20228;-80
2023/05/06 10:14:29;;;;;;;7.63;5.78;;;17.10;99.90;;;;;;5092208;28;20227;-81
2023/05/06 10:16:56;;;;;;;6.18;5.07;;;17.20;99.90;;;;;;5077690;28;20190;-79
2023/05/06 10:19:25;;;;;;;7.65;6.35;;;18.30;99.90;;;;;;5089348;28;20543;-79
2023/05/06 10:21:56;;;;;;;8.80;6.47;;;18.60;99.90;;;;;;5111981;28;20224;-79
2023/05/06 10:24:28;;;;;;;11.07;6.63;;;18.10;99.90;;;;;;5084546;28;20579;-79
2023/05/06 10:26:56;;;;;;;8.63;5.63;;;18.70;99.90;;;;;;5078152;28;20253;-79
2023/05/06 10:29:26;;;;;;;7.65;6.28;;;19.00;99.90;;;;;;5090415;28;20209;-79
2023/05/06 10:31:55;;;;;;;8.10;7.07;;;18.70;99.90;;;;;;5094641;28;20263;-79
2023/05/06 10:34:25;;;;;;;9.85;7.13;;;19.30;99.90;;;;;;5074662;28;20236;-79
2023/05/06 10:36:56;;;;;;;9.68;6.55;;;19.10;99.90;;;;;;5077194;28;20244;-79
2023/05/06 10:39:23;;;;;;;7.65;6.10;;;18.60;99.90;;;;;;5075638;28;20237;-80
2023/05/06 10:41:50;;;;;;;10.88;6.22;;;19.80;99.90;;;;;;5079460;28;20278;-79
2023/05/06 10:44:17;;;;;;;10.48;7.55;;;19.40;99.90;;;;;;5078767;28;20836;-80
2023/05/06 10:46:59;;;;;;;9.80;6.72;;;19.00;99.90;;;;;;5080132;28;20724;-79
2023/05/06 10:49:26;;;;;;;7.95;5.95;;;18.90;99.90;;;;;;5080785;28;20695;-80
2023/05/06 10:52:12;;;;;;;7.53;5.72;;;19.00;99.90;;;;;;5080083;28;20309;-79
2023/05/06 10:54:50;;;;;;;8.73;5.72;;;19.30;99.90;;;;;;5080569;28;20205;-79
2023/05/06 10:57:17;;;;;;;9.85;5.55;;;19.40;99.90;;;;;;5091691;28;20201;-81
2023/05/06 10:59:46;;;;;;;7.43;5.78;;;20.10;99.90;;;;;;5079815;28;20206;-79
2023/05/06 11:02:17;;;;;;;10.40;6.35;;;19.70;99.90;;;;;;5080870;28;20244;-79
2023/05/06 11:04:50;;;;;;;8.35;5.55;;;19.90;99.90;;;;;;5093545;28;20694;-79
2023/05/06 11:07:23;;;;;;;7.95;5.97;;;19.80;99.90;;;;;;5081343;28;20379;-78
2023/05/06 11:10:00;;;;;;;7.82;6.13;;;19.70;99.90;;;;;;5080221;28;20237;-80
2023/05/06 11:12:45;;;;;;;8.80;6.18;;;20.20;99.90;;;;;;5080615;28;20896;-81
2023/05/06 11:15:37;;;;;;;7.78;5.93;;;19.80;99.90;;;;;;5079680;28;20206;-79
2023/05/06 11:18:42;;;;;;;8.88;6.22;;;20.60;99.90;;;;;;5088565;28;20297;-80
2023/05/06 11:21:40;;;;;;;6.47;5.55;;;20.80;99.90;;;;;;5099538;28;20205;-81
2023/05/06 11:24:08;;;;;;;9.20;6.45;;;21.50;99.90;;;;;;5099467;28;20212;-81
2023/05/06 11:26:35;;;;;;;8.15;6.20;;;20.70;99.90;;;;;;5110623;28;20231;-81
2023/05/06 11:29:03;;;;;;;8.55;6.15;;;20.30;99.90;;;;;;5119720;28;20635;-81
2023/05/06 11:31:37;;;;;;;7.50;5.70;;;20.90;99.90;;;;;;5118494;28;20217;-79
2023/05/06 11:34:08;;;;;;;6.55;5.18;;;20.70;99.90;;;;;;5104826;28;20297;-80
2023/05/06 11:36:35;;;;;;;6.57;5.35;;;21.10;99.90;;;;;;5078657;28;20207;-80
2023/05/06 11:39:07;;;;;;;9.15;6.85;;;21.10;99.90;;;;;;5078248;28;20260;-80
2023/05/06 11:41:34;;;;;;;9.20;6.55;;;20.80;99.90;;;;;;5078463;28;20249;-80
2023/05/06 11:44:01;;;;;;;7.07;5.90;;;20.50;99.90;;;;;;5096354;28;20217;-79
2023/05/06 11:46:32;;;;;;;10.45;7.15;;;21.30;99.90;;;;;;5098831;28;20211;-79
2023/05/06 11:48:59;;;;;;;9.27;7.32;;;21.50;99.90;;;;;;5108275;28;20278;-79
2023/05/06 11:51:27;;;;;;;8.25;6.80;;;20.20;99.90;;;;;;5122950;28;20220;-79
2023/05/06 11:54:05;;;;;;;9.57;6.28;;;20.30;99.90;;;;;;5122927;28;20260;-79
2023/05/06 11:56:43;;;;;;;9.48;5.78;;;20.20;99.90;;;;;;5122790;28;20208;-79
2023/05/06 11:59:10;;;;;;;5.82;4.15;;;20.60;99.90;;;;;;5122743;28;20283;-79
2023/05/06 12:01:38;;;;;;;6.72;5.15;;;21.20;1.00;;;;;;5122352;28;20221;-79
2023/05/06 12:04:05;;;;;;;6.78;5.13;;;21.00;43.30;;;;;;5123365;28;20317;-80
2023/05/06 12:06:36;;;;;;;8.45;6.18;;;19.80;1.00;;;;;;5123147;28;20268;-79
2023/05/06 12:09:05;;;;;;;8.52;6.78;;;20.80;1.00;;;;;;5122506;28;20204;-80
2023/05/06 12:11:33;;;;;;;7.53;5.95;;;20.80;99.90;;;;;;5120763;28;20221;-79
2023/05/06 12:14:01;;;;;;;7.88;6.20;;;21.40;99.90;;;;;;5122053;28;20276;-79
2023/05/06 12:16:28;;;;;;;6.85;5.60;;;21.70;99.90;;;;;;5120659;28;20193;-81
2023/05/06 12:18:55;;;;;;;9.27;6.40;;;21.20;1.00;;;;;;5115411;28;20209;-81
2023/05/06 12:21:23;;;;;;;9.73;7.60;;;21.70;1.00;;;;;;5115014;28;20294;-82
2023/05/06 12:23:56;;;;;;;10.07;7.57;;;21.30;99.90;;;;;;5115391;28;20205;-81
2023/05/06 12:26:23;;;;;;;11.02;9.13;;;20.60;99.90;;;;;;5115541;28;20236;-82
2023/05/06 12:29:06;;;;;;;13.45;9.77;;;19.30;91.00;;;;;;5115405;28;20677;-80
2023/05/06 12:31:34;;;;;;;12.43;9.70;;;19.00;99.90;;;;;;5115078;28;20220;-81
2023/05/06 12:34:01;;;;;;;9.38;7.13;;;19.20;99.90;;;;;;5115877;28;20283;-79
2023/05/06 12:36:28;;;;;;;10.20;7.68;;;19.30;99.90;;;;;;5116233;28;20641;-81
2023/05/06 12:38:57;;;;;;;11.75;7.63;;;19.30;99.90;;;;;;5114965;28;20203;-80
2023/05/06 12:41:35;;;;;;;11.07;8.07;;;19.00;1.00;;;;;;5115152;28;20242;-81
2023/05/06 12:44:02;;;;;;;12.20;7.88;;;19.00;99.90;;;;;;5115159;28;20238;-80